sensor_id;sensor_type;location;lat;lon;timestamp;pressure;altitude;pressure_sealevel;temperature;humidity
8160;BME280;27404;52.398;9.646;2022-11-20T00:00:07;100549.47;;;-5.39;100.00
8160;BME280;27404;52.398;9.646;2022-11-20T00:02:33;100552.25;;;-5.41;100.00
8160;BME280;27404;52.398;9.646;2022-11-20T00:04:58;100556.31;;;-5.46;100.00
8160;BME280;27404;52.398;9.646;2022-11-20T00:07:23;100546.03;;;-5.51;100.00
8160;BME280;27404;52.398;9.646;2022-11-20T00:09:49;100547.72;;;-5.50;100.00
8160;BME280;27404;52.398;9.646;2022-11-20T00:12:14;100551.97;;;-5.47;100.00
8160;BME280;27404;52.398;9.646;2022-11-20T00:14:40;100544.25;;;-5.41;100.00
8160;BME280;27404;52.398;9.646;2022-11-20T00:17:06;100544.59;;;-5.34;100.00
8160;BME280;27404;52.398;9.646;2022-11-20T00:19:32;100539.38;;;-5.36;100.00
8160;BME280;27404;52.398;9.646;2022-11-20T00:21:57;100538.41;;;-5.35;100.00
8160;BME280;27404;52.398;9.646;2022-11-20T00:24:23;100541.34;;;-5.38;100.00
8160;BME280;27404;52.398;9.646;2022-11-20T00:26:48;100531.25;;;-5.34;100.00
8160;BME280;27404;52.398;9.646;2022-11-20T00:29:14;100540.78;;;-5.31;100.00
8160;BME280;27404;52.398;9.646;2022-11-20T00:31:39;100544.16;;;-5.29;100.00
8160;BME280;27404;52.398;9.646;2022-11-20T00:34:05;100540.34;;;-5.37;100.00
8160;BME280;27404;52.398;9.646;2022-11-20T00:36:32;100543.72;;;-5.35;100.00
8160;BME280;27404;52.398;9.646;2022-11-20T00:38:59;100545.00;;;-5.29;100.00
8160;BME280;27404;52.398;9.646;2022-11-20T00:41:25;100539.00;;;-5.31;100.00
8160;BME280;27404;52.398;9.646;2022-11-20T00:43:52;100534.84;;;-5.14;100.00
8160;BME280;27404;52.398;9.646;2022-11-20T00:46:19;100527.28;;;-5.09;100.00
8160;BME280;27404;52.398;9.646;2022-11-20T00:48:45;100529.94;;;-5.09;100.00
8160;BME280;27404;52.398;9.646;2022-11-20T00:51:13;100526.56;;;-5.11;100.00
8160;BME280;27404;52.398;9.646;2022-11-20T00:53:38;100535.22;;;-5.18;100.00
8160;BME280;27404;52.398;9.646;2022-11-20T00:56:06;100535.34;;;-5.30;100.00
8160;BME280;27404;52.398;9.646;2022-11-20T00:58:37;100541.22;;;-5.36;100.00
8160;BME280;27404;52.398;9.646;2022-11-20T01:01:13;100535.63;;;-5.33;100.00
8160;BME280;27404;52.398;9.646;2022-11-20T01:03:42;100530.44;;;-5.25;100.00
8160;BME280;27404;52.398;9.646;2022-11-20T01:06:16;100530.75;;;-5.18;100.00
8160;BME280;27404;52.398;9.646;2022-11-20T01:08:42;100536.34;;;-5.21;100.00
8160;BME280;27404;52.398;9.646;2022-11-20T01:11:12;100525.97;;;-5.24;100.00
8160;BME280;27404;52.398;9.646;2022-11-20T01:13:38;100528.34;;;-5.31;100.00
8160;BME280;27404;52.398;9.646;2022-11-20T01:16:19;100518.78;;;-5.33;100.00
8160;BME280;27404;52.398;9.646;2022-11-20T01:18:47;100529.31;;;-5.32;100.00
8160;BME280;27404;52.398;9.646;2022-11-20T01:21:30;100529.59;;;-5.25;100.00
8160;BME280;27404;52.398;9.646;2022-11-20T01:23:57;100519.22;;;-5.18;100.00
8160;BME280;27404;52.398;9.646;2022-11-20T01:26:28;100516.19;;;-5.14;100.00
8160;BME280;27404;52.398;9.646;2022-11-20T01:28:55;100514.06;;;-5.10;100.00
8160;BME280;27404;52.398;9.646;2022-11-20T01:31:26;100527.09;;;-5.17;100.00
8160;BME280;27404;52.398;9.646;2022-11-20T01:33:55;100514.88;;;-5.20;100.00
8160;BME280;27404;52.398;9.646;2022-11-20T01:36:22;100515.84;;;-5.21;100.00
8160;BME280;27404;52.398;9.646;2022-11-20T01:38:52;100521.19;;;-5.21;100.00
8160;BME280;27404;52.398;9.646;2022-11-20T01:41:19;100512.22;;;-5.20;100.00
8160;BME280;27404;52.398;9.646;2022-11-20T01:44:03;100513.63;;;-5.15;100.00
8160;BME280;27404;52.398;9.646;2022-11-20T01:46:31;100503.41;;;-5.20;100.00
8160;BME280;27404;52.398;9.646;2022-11-20T01:54:02;100505.47;;;-5.24;100.00
8160;BME280;27404;52.398;9.646;2022-11-20T01:56:31;100509.09;;;-5.25;100.00
8160;BME280;27404;52.398;9.646;2022-11-20T01:59:01;100496.94;;;-5.17;100.00
8160;BME280;27404;52.398;9.646;2022-11-20T02:01:29;100496.81;;;-5.06;100.00
8160;BME280;27404;52.398;9.646;2022-11-20T02:03:55;100489.41;;;-4.93;100.00
8160;BME280;27404;52.398;9.646;2022-11-20T02:06:28;100487.44;;;-4.91;100.00
8160;BME280;27404;52.398;9.646;2022-11-20T02:08:55;100481.69;;;-4.86;100.00
8160;BME280;27404;52.398;9.646;2022-11-20T02:11:21;100485.06;;;-4.84;100.00
8160;BME280;27404;52.398;9.646;2022-11-20T02:13:47;100483.25;;;-4.83;100.00
8160;BME280;27404;52.398;9.646;2022-11-20T02:18:43;100491.38;;;-4.95;100.00
8160;BME280;27404;52.398;9.646;2022-11-20T02:24:08;100488.28;;;-4.90;100.00
8160;BME280;27404;52.398;9.646;2022-11-20T02:29:11;100475.97;;;-4.71;100.00
8160;BME280;27404;52.398;9.646;2022-11-20T02:31:40;100486.50;;;-4.60;100.00
8160;BME280;27404;52.398;9.646;2022-11-20T02:34:06;100474.41;;;-4.54;100.00
8160;BME280;27404;52.398;9.646;2022-11-20T02:36:33;100477.50;;;-4.59;100.00
8160;BME280;27404;52.398;9.646;2022-11-20T02:39:01;100473.28;;;-4.52;100.00
8160;BME280;27404;52.398;9.646;2022-11-20T02:41:34;100469.22;;;-4.56;100.00
8160;BME280;27404;52.398;9.646;2022-11-20T02:44:00;100470.34;;;-4.68;100.00
8160;BME280;27404;52.398;9.646;2022-11-20T02:46:26;100474.13;;;-4.61;100.00
8160;BME280;27404;52.398;9.646;2022-11-20T02:48:51;100477.09;;;-4.64;100.00
8160;BME280;27404;52.398;9.646;2022-11-20T02:51:16;100476.81;;;-4.71;100.00
8160;BME280;27404;52.398;9.646;2022-11-20T02:53:42;100466.81;;;-4.79;100.00
8160;BME280;27404;52.398;9.646;2022-11-20T02:56:07;100469.91;;;-4.73;100.00
8160;BME280;27404;52.398;9.646;2022-11-20T02:58:33;100468.94;;;-4.63;100.00
8160;BME280;27404;52.398;9.646;2022-11-20T03:00:58;100464.72;;;-4.55;100.00
8160;BME280;27404;52.398;9.646;2022-11-20T03:03:24;100465.16;;;-4.40;100.00
8160;BME280;27404;52.398;9.646;2022-11-20T03:05:49;100464.16;;;-4.39;100.00
8160;BME280;27404;52.398;9.646;2022-11-20T03:08:14;100462.19;;;-4.37;100.00
8160;BME280;27404;52.398;9.646;2022-11-20T03:10:40;100459.25;;;-4.34;100.00
8160;BME280;27404;52.398;9.646;2022-11-20T03:13:05;100458.78;;;-4.29;100.00
8160;BME280;27404;52.398;9.646;2022-11-20T03:15:31;100454.59;;;-4.32;100.00
8160;BME280;27404;52.398;9.646;2022-11-20T03:17:56;100453.00;;;-4.25;100.00
8160;BME280;27404;52.398;9.646;2022-11-20T03:20:22;100454.28;;;-4.19;100.00
8160;BME280;27404;52.398;9.646;2022-11-20T03:22:48;100444.16;;;-4.16;100.00
8160;BME280;27404;52.398;9.646;2022-11-20T03:25:13;100446.00;;;-4.16;100.00
8160;BME280;27404;52.398;9.646;2022-11-20T03:27:39;100446.13;;;-4.18;100.00
8160;BME280;27404;52.398;9.646;2022-11-20T03:30:05;100446.13;;;-4.18;100.00
8160;BME280;27404;52.398;9.646;2022-11-20T03:32:30;100441.47;;;-4.16;100.00
8160;BME280;27404;52.398;9.646;2022-11-20T03:34:56;100435.56;;;-4.09;100.00
8160;BME280;27404;52.398;9.646;2022-11-20T03:37:22;100429.13;;;-4.07;100.00
8160;BME280;27404;52.398;9.646;2022-11-20T03:39:47;100430.34;;;-4.01;100.00
8160;BME280;27404;52.398;9.646;2022-11-20T03:42:13;100424.72;;;-3.98;100.00
8160;BME280;27404;52.398;9.646;2022-11-20T03:44:57;100430.75;;;-3.96;100.00
8160;BME280;27404;52.398;9.646;2022-11-20T03:47:22;100432.56;;;-3.96;100.00
8160;BME280;27404;52.398;9.646;2022-11-20T03:49:48;100419.38;;;-3.98;100.00
8160;BME280;27404;52.398;9.646;2022-11-20T03:52:13;100430.75;;;-3.96;100.00
8160;BME280;27404;52.398;9.646;2022-11-20T03:54:39;100425.13;;;-3.93;100.00
8160;BME280;27404;52.398;9.646;2022-11-20T03:57:04;100417.66;;;-3.89;100.00
8160;BME280;27404;52.398;9.646;2022-11-20T03:59:30;100418.34;;;-3.87;100.00
8160;BME280;27404;52.398;9.646;2022-11-20T04:01:55;100405.69;;;-3.85;100.00
8160;BME280;27404;52.398;9.646;2022-11-20T04:04:20;100411.72;;;-3.83;100.00
8160;BME280;27404;52.398;9.646;2022-11-20T04:06:46;100406.09;;;-3.80;100.00
8160;BME280;27404;52.398;9.646;2022-11-20T04:09:12;100410.72;;;-3.72;100.00
8160;BME280;27404;52.398;9.646;2022-11-20T04:11:39;100404.09;;;-3.68;100.00
8160;BME280;27404;52.398;9.646;2022-11-20T04:14:06;100409.78;;;-3.63;100.00
8160;BME280;27404;52.398;9.646;2022-11-20T04:16:37;100407.00;;;-3.61;100.00
8160;BME280;27404;52.398;9.646;2022-11-20T04:19:05;100399.38;;;-3.56;100.00
8160;BME280;27404;52.398;9.646;2022-11-20T04:21:32;100414.25;;;-3.53;100.00
8160;BME280;27404;52.398;9.646;2022-11-20T04:23:58;100405.25;;;-3.52;100.00
8160;BME280;27404;52.398;9.646;2022-11-20T04:26:26;100403.72;;;-3.55;100.00
8160;BME280;27404;52.398;9.646;2022-11-20T04:28:52;100408.06;;;-3.54;100.00
8160;BME280;27404;52.398;9.646;2022-11-20T04:31:20;100406.41;;;-3.55;100.00
8160;BME280;27404;52.398;9.646;2022-11-20T04:33:46;100415.09;;;-3.53;100.00
8160;BME280;27404;52.398;9.646;2022-11-20T04:36:19;100411.97;;;-3.48;100.00
8160;BME280;27404;52.398;9.646;2022-11-20T04:38:45;100414.34;;;-3.45;100.00
8160;BME280;27404;52.398;9.646;2022-11-20T04:41:16;100416.72;;;-3.42;100.00
8160;BME280;27404;52.398;9.646;2022-11-20T04:43:46;100412.66;;;-3.46;100.00
8160;BME280;27404;52.398;9.646;2022-11-20T04:46:12;100408.19;;;-3.46;100.00
8160;BME280;27404;52.398;9.646;2022-11-20T04:48:38;100418.88;;;-3.46;100.00
8160;BME280;27404;52.398;9.646;2022-11-20T04:51:04;100410.84;;;-3.46;100.00
8160;BME280;27404;52.398;9.646;2022-11-20T04:53:29;100421.06;;;-3.41;100.00
8160;BME280;27404;52.398;9.646;2022-11-20T04:56:06;100417.97;;;-3.36;100.00
8160;BME280;27404;52.398;9.646;2022-11-20T04:58:32;100425.53;;;-3.32;100.00
8160;BME280;27404;52.398;9.646;2022-11-20T05:01:03;100419.34;;;-3.32;100.00
8160;BME280;27404;52.398;9.646;2022-11-20T05:03:29;100424.22;;;-3.28;100.00
8160;BME280;27404;52.398;9.646;2022-11-20T05:05:54;100416.13;;;-3.36;100.00
8160;BME280;27404;52.398;9.646;2022-11-20T05:08:20;100404.34;;;-3.43;100.00
8160;BME280;27404;52.398;9.646;2022-11-20T05:10:45;100414.91;;;-3.42;100.00
8160;BME280;27404;52.398;9.646;2022-11-20T05:13:11;100409.56;;;-3.42;100.00
8160;BME280;27404;52.398;9.646;2022-11-20T05:15:36;100410.94;;;-3.37;100.00
8160;BME280;27404;52.398;9.646;2022-11-20T05:18:02;100402.94;;;-3.37;100.00
8160;BME280;27404;52.398;9.646;2022-11-20T05:20:27;100402.06;;;-3.38;100.00
8160;BME280;27404;52.398;9.646;2022-11-20T05:22:56;100390.69;;;-3.40;100.00
8160;BME280;27404;52.398;9.646;2022-11-20T05:25:22;100385.22;;;-3.38;100.00
8160;BME280;27404;52.398;9.646;2022-11-20T05:27:47;100392.38;;;-3.39;100.00
8160;BME280;27404;52.398;9.646;2022-11-20T05:30:13;100400.09;;;-3.36;100.00
8160;BME280;27404;52.398;9.646;2022-11-20T05:32:38;100395.59;;;-3.35;100.00
8160;BME280;27404;52.398;9.646;2022-11-20T05:35:04;100398.78;;;-3.32;100.00
8160;BME280;27404;52.398;9.646;2022-11-20T05:37:29;100390.25;;;-3.35;100.00
8160;BME280;27404;52.398;9.646;2022-11-20T05:39:55;100385.59;;;-3.33;100.00
8160;BME280;27404;52.398;9.646;2022-11-20T05:42:20;100383.22;;;-3.36;100.00
8160;BME280;27404;52.398;9.646;2022-11-20T05:44:55;100379.41;;;-3.34;100.00
8160;BME280;27404;52.398;9.646;2022-11-20T05:47:21;100382.94;;;-3.33;100.00
8160;BME280;27404;52.398;9.646;2022-11-20T05:49:46;100388.78;;;-3.30;100.00
8160;BME280;27404;52.398;9.646;2022-11-20T05:52:12;100389.31;;;-3.26;100.00
8160;BME280;27404;52.398;9.646;2022-11-20T05:54:37;100378.88;;;-3.19;100.00
8160;BME280;27404;52.398;9.646;2022-11-20T05:57:03;100383.22;;;-3.18;100.00
8160;BME280;27404;52.398;9.646;2022-11-20T05:59:28;100373.66;;;-3.21;100.00
8160;BME280;27404;52.398;9.646;2022-11-20T06:01:54;100368.50;;;-3.22;100.00
8160;BME280;27404;52.398;9.646;2022-11-20T06:04:19;100371.59;;;-3.27;100.00
8160;BME280;27404;52.398;9.646;2022-11-20T06:06:44;100368.22;;;-3.29;100.00
8160;BME280;27404;52.398;9.646;2022-11-20T06:09:10;100368.63;;;-3.42;100.00
8160;BME280;27404;52.398;9.646;2022-11-20T06:11:35;100357.63;;;-3.39;100.00
8160;BME280;27404;52.398;9.646;2022-11-20T06:14:01;100383.63;;;-3.31;100.00
8160;BME280;27404;52.398;9.646;2022-11-20T06:16:26;100391.38;;;-3.38;100.00
8160;BME280;27404;52.398;9.646;2022-11-20T06:18:52;100375.56;;;-3.49;100.00
8160;BME280;27404;52.398;9.646;2022-11-20T06:21:19;100370.06;;;-3.48;100.00
8160;BME280;27404;52.398;9.646;2022-11-20T06:23:45;100374.94;;;-3.43;100.00
8160;BME280;27404;52.398;9.646;2022-11-20T06:26:13;100365.34;;;-3.36;100.00
8160;BME280;27404;52.398;9.646;2022-11-20T06:28:39;100364.91;;;-3.31;100.00
8160;BME280;27404;52.398;9.646;2022-11-20T06:31:06;100366.41;;;-3.29;100.00
8160;BME280;27404;52.398;9.646;2022-11-20T06:33:31;100361.06;;;-3.29;100.00
8160;BME280;27404;52.398;9.646;2022-11-20T06:35:58;100365.13;;;-3.24;100.00
8160;BME280;27404;52.398;9.646;2022-11-20T06:38:25;100362.84;;;-3.19;100.00
8160;BME280;27404;52.398;9.646;2022-11-20T06:40:50;100358.63;;;-3.22;100.00
8160;BME280;27404;52.398;9.646;2022-11-20T06:43:16;100367.88;;;-3.16;100.00
8160;BME280;27404;52.398;9.646;2022-11-20T06:45:41;100370.38;;;-3.15;100.00
8160;BME280;27404;52.398;9.646;2022-11-20T06:48:08;100372.06;;;-3.14;100.00
8160;BME280;27404;52.398;9.646;2022-11-20T06:50:33;100360.53;;;-3.14;100.00
8160;BME280;27404;52.398;9.646;2022-11-20T06:53:02;100362.75;;;-3.09;100.00
8160;BME280;27404;52.398;9.646;2022-11-20T06:55:29;100374.13;;;-3.07;100.00
8160;BME280;27404;52.398;9.646;2022-11-20T06:57:54;100365.72;;;-3.13;100.00
8160;BME280;27404;52.398;9.646;2022-11-20T07:00:19;100364.91;;;-3.13;100.00
8160;BME280;27404;52.398;9.646;2022-11-20T07:02:45;100362.75;;;-3.09;100.00
8160;BME280;27404;52.398;9.646;2022-11-20T07:05:10;100367.72;;;-3.15;100.00
8160;BME280;27404;52.398;9.646;2022-11-20T07:07:36;100364.97;;;-3.05;100.00
8160;BME280;27404;52.398;9.646;2022-11-20T07:10:01;100362.81;;;-3.01;100.00
8160;BME280;27404;52.398;9.646;2022-11-20T07:12:27;100357.69;;;-2.94;100.00
8160;BME280;27404;52.398;9.646;2022-11-20T07:14:52;100353.66;;;-2.99;100.00
8160;BME280;27404;52.398;9.646;2022-11-20T07:17:18;100345.41;;;-3.05;100.00
8160;BME280;27404;52.398;9.646;2022-11-20T07:19:43;100340.22;;;-3.07;100.00
8160;BME280;27404;52.398;9.646;2022-11-20T07:22:08;100342.22;;;-3.09;100.00
8160;BME280;27404;52.398;9.646;2022-11-20T07:24:34;100345.41;;;-3.05;100.00
8160;BME280;27404;52.398;9.646;2022-11-20T07:27:00;100354.28;;;-3.05;100.00
8160;BME280;27404;52.398;9.646;2022-11-20T07:29:25;100354.81;;;-3.01;100.00
8160;BME280;27404;52.398;9.646;2022-11-20T07:31:51;100356.66;;;-3.02;100.00
8160;BME280;27404;52.398;9.646;2022-11-20T07:34:16;100356.69;;;-2.93;100.00
8160;BME280;27404;52.398;9.646;2022-11-20T07:36:42;100364.28;;;-2.89;100.00
8160;BME280;27404;52.398;9.646;2022-11-20T07:39:07;100370.69;;;-2.81;100.00
8160;BME280;27404;52.398;9.646;2022-11-20T07:41:33;100362.34;;;-2.78;100.00
8160;BME280;27404;52.398;9.646;2022-11-20T07:43:58;100364.19;;;-2.79;100.00
8160;BME280;27404;52.398;9.646;2022-11-20T07:46:23;100353.03;;;-2.74;100.00
8160;BME280;27404;52.398;9.646;2022-11-20T07:48:49;100360.69;;;-2.79;100.00
8160;BME280;27404;52.398;9.646;2022-11-20T07:51:14;100372.56;;;-2.74;100.00
8160;BME280;27404;52.398;9.646;2022-11-20T07:53:40;100358.06;;;-2.71;100.00
8160;BME280;27404;52.398;9.646;2022-11-20T07:56:05;100358.38;;;-2.74;100.00
8160;BME280;27404;52.398;9.646;2022-11-20T07:58:32;100359.69;;;-2.78;100.00
8160;BME280;27404;52.398;9.646;2022-11-20T08:01:06;100369.06;;;-2.74;100.00
8160;BME280;27404;52.398;9.646;2022-11-20T08:03:32;100364.44;;;-2.64;100.00
8160;BME280;27404;52.398;9.646;2022-11-20T08:06:01;100357.47;;;-2.57;100.00
8160;BME280;27404;52.398;9.646;2022-11-20T08:08:27;100358.72;;;-2.51;100.00
8160;BME280;27404;52.398;9.646;2022-11-20T08:10:53;100348.69;;;-2.49;100.00
8160;BME280;27404;52.398;9.646;2022-11-20T08:13:39;100356.41;;;-2.46;100.00
8160;BME280;27404;52.398;9.646;2022-11-20T08:16:23;100356.78;;;-2.41;100.00
8160;BME280;27404;52.398;9.646;2022-11-20T08:18:48;100350.44;;;-2.31;100.00
8160;BME280;27404;52.398;9.646;2022-11-20T08:21:14;100365.50;;;-2.30;100.00
8160;BME280;27404;52.398;9.646;2022-11-20T08:23:40;100362.69;;;-2.29;100.00
8160;BME280;27404;52.398;9.646;2022-11-20T08:26:05;100363.72;;;-2.21;100.00
8160;BME280;27404;52.398;9.646;2022-11-20T08:28:31;100357.44;;;-2.12;100.00
8160;BME280;27404;52.398;9.646;2022-11-20T08:31:01;100365.00;;;-1.99;100.00
8160;BME280;27404;52.398;9.646;2022-11-20T08:33:27;100367.53;;;-1.98;100.00
8160;BME280;27404;52.398;9.646;2022-11-20T08:35:53;100366.75;;;-1.90;100.00
8160;BME280;27404;52.398;9.646;2022-11-20T08:38:18;100368.59;;;-1.82;100.00
8160;BME280;27404;52.398;9.646;2022-11-20T08:40:43;100365.91;;;-1.82;100.00
8160;BME280;27404;52.398;9.646;2022-11-20T08:43:32;100354.41;;;-1.74;100.00
8160;BME280;27404;52.398;9.646;2022-11-20T08:45:57;100367.16;;;-1.68;100.00
8160;BME280;27404;52.398;9.646;2022-11-20T08:48:23;100365.34;;;-1.59;100.00
8160;BME280;27404;52.398;9.646;2022-11-20T08:50:48;100369.72;;;-1.50;100.00
8160;BME280;27404;52.398;9.646;2022-11-20T08:53:14;100370.75;;;-1.43;100.00
8160;BME280;27404;52.398;9.646;2022-11-20T08:55:39;100359.19;;;-1.35;100.00
8160;BME280;27404;52.398;9.646;2022-11-20T08:58:06;100364.75;;;-1.37;100.00
8160;BME280;27404;52.398;9.646;2022-11-20T09:00:32;100371.44;;;-1.41;100.00
8160;BME280;27404;52.398;9.646;2022-11-20T09:02:58;100374.47;;;-1.36;100.00
8160;BME280;27404;52.398;9.646;2022-11-20T09:05:26;100372.78;;;-1.37;100.00
8160;BME280;27404;52.398;9.646;2022-11-20T09:07:51;100369.41;;;-1.30;100.00
8160;BME280;27404;52.398;9.646;2022-11-20T09:10:17;100357.88;;;-1.31;100.00
8160;BME280;27404;52.398;9.646;2022-11-20T09:12:42;100341.59;;;-1.46;100.00
8160;BME280;27404;52.398;9.646;2022-11-20T09:15:08;100338.75;;;-1.36;100.00
8160;BME280;27404;52.398;9.646;2022-11-20T09:17:34;100331.56;;;-1.36;100.00
8160;BME280;27404;52.398;9.646;2022-11-20T09:19:59;100336.59;;;-1.24;100.00
8160;BME280;27404;52.398;9.646;2022-11-20T09:22:24;100338.63;;;-1.10;100.00
8160;BME280;27404;52.398;9.646;2022-11-20T09:24:50;100334.09;;;-1.09;100.00
8160;BME280;27404;52.398;9.646;2022-11-20T09:27:15;100352.03;;;-0.93;100.00
8160;BME280;27404;52.398;9.646;2022-11-20T09:29:46;100362.78;;;-0.77;100.00
8160;BME280;27404;52.398;9.646;2022-11-20T09:32:11;100373.69;;;-0.70;100.00
8160;BME280;27404;52.398;9.646;2022-11-20T09:34:37;100366.44;;;-0.61;100.00
8160;BME280;27404;52.398;9.646;2022-11-20T09:37:02;100370.81;;;-0.52;100.00
8160;BME280;27404;52.398;9.646;2022-11-20T09:39:28;100369.13;;;-0.45;100.00
8160;BME280;27404;52.398;9.646;2022-11-20T09:56:01;100369.88;;;-0.03;100.00
8160;BME280;27404;52.398;9.646;2022-11-20T09:58:29;100365.84;;;0.02;100.00
8160;BME280;27404;52.398;9.646;2022-11-20T10:01:05;100359.75;;;0.08;100.00
8160;BME280;27404;52.398;9.646;2022-11-20T10:03:41;100360.78;;;0.07;100.00
8160;BME280;27404;52.398;9.646;2022-11-20T10:06:15;100366.91;;;0.24;100.00
8160;BME280;27404;52.398;9.646;2022-11-20T10:08:54;100360.88;;;0.22;100.00
8160;BME280;27404;52.398;9.646;2022-11-20T10:14:49;100351.78;;;0.31;100.00
8160;BME280;27404;52.398;9.646;2022-11-20T10:25:39;100341.88;;;0.32;100.00
8160;BME280;27404;52.398;9.646;2022-11-20T10:31:00;100337.34;;;0.24;100.00
8160;BME280;27404;52.398;9.646;2022-11-20T10:33:32;100337.09;;;0.02;100.00
8160;BME280;27404;52.398;9.646;2022-11-20T10:36:08;100340.16;;;-0.01;100.00
8160;BME280;27404;52.398;9.646;2022-11-20T10:38:44;100337.59;;;0.06;100.00
8160;BME280;27404;52.398;9.646;2022-11-20T10:41:30;100335.13;;;-0.04;100.00
8160;BME280;27404;52.398;9.646;2022-11-20T10:44:09;100332.63;;;-0.14;100.00
8160;BME280;27404;52.398;9.646;2022-11-20T10:46:44;100338.47;;;-0.02;100.00
8160;BME280;27404;52.398;9.646;2022-11-20T10:49:16;100339.50;;;-0.03;100.00
8160;BME280;27404;52.398;9.646;2022-11-20T10:52:45;100328.53;;;0.07;100.00
8160;BME280;27404;52.398;9.646;2022-11-20T11:00:31;100326.53;;;0.01;100.00
8160;BME280;27404;52.398;9.646;2022-11-20T11:02:57;100320.72;;;-0.11;100.00
8160;BME280;27404;52.398;9.646;2022-11-20T11:05:50;100316.84;;;-0.17;100.00
8160;BME280;27404;52.398;9.646;2022-11-20T11:08:19;100316.19;;;-0.27;100.00
8160;BME280;27404;52.398;9.646;2022-11-20T11:13:42;100306.09;;;-0.17;100.00
8160;BME280;27404;52.398;9.646;2022-11-20T11:16:23;100312.31;;;-0.17;100.00
8160;BME280;27404;52.398;9.646;2022-11-20T11:18:49;100306.59;;;-0.13;100.00
8160;BME280;27404;52.398;9.646;2022-11-20T11:21:21;100302.91;;;-0.12;100.00
8160;BME280;27404;52.398;9.646;2022-11-20T11:24:00;100304.91;;;-0.06;100.00
8160;BME280;27404;52.398;9.646;2022-11-20T11:26:27;100302.53;;;-0.01;100.00
8160;BME280;27404;52.398;9.646;2022-11-20T11:29:03;100297.94;;;0.08;100.00
8160;BME280;27404;52.398;9.646;2022-11-20T11:31:34;100294.91;;;0.11;100.00
8160;BME280;27404;52.398;9.646;2022-11-20T11:36:33;100300.91;;;0.21;100.00
8160;BME280;27404;52.398;9.646;2022-11-20T11:39:00;100303.56;;;0.29;100.00
8160;BME280;27404;52.398;9.646;2022-11-20T11:41:31;100301.38;;;0.25;100.00
8160;BME280;27404;52.398;9.646;2022-11-20T11:44:04;100308.28;;;0.27;100.00
8160;BME280;27404;52.398;9.646;2022-11-20T11:46:58;100300.38;;;0.26;100.00
8160;BME280;27404;52.398;9.646;2022-11-20T11:49:24;100300.88;;;0.29;100.00
8160;BME280;27404;52.398;9.646;2022-11-20T12:00:16;100288.22;;;0.38;100.00
8160;BME280;27404;52.398;9.646;2022-11-20T12:05:30;100282.59;;;0.48;100.00
8160;BME280;27404;52.398;9.646;2022-11-20T12:08:17;100281.06;;;0.54;100.00
8160;BME280;27404;52.398;9.646;2022-11-20T12:10:53;100277.16;;;0.56;100.00
8160;BME280;27404;52.398;9.646;2022-11-20T12:15:55;100270.59;;;0.59;100.00
8160;BME280;27404;52.398;9.646;2022-11-20T12:18:22;100278.13;;;0.64;100.00
8160;BME280;27404;52.398;9.646;2022-11-20T12:26:54;100259.25;;;0.49;100.00
8160;BME280;27404;52.398;9.646;2022-11-20T12:34:58;100256.41;;;0.88;100.00
8160;BME280;27404;52.398;9.646;2022-11-20T12:43:14;100255.94;;;1.00;100.00
8160;BME280;27404;52.398;9.646;2022-11-20T12:51:50;100258.44;;;0.86;100.00
8160;BME280;27404;52.398;9.646;2022-11-20T12:57:09;100245.94;;;0.94;100.00
8160;BME280;27404;52.398;9.646;2022-11-20T12:59:51;100237.31;;;0.98;100.00
8160;BME280;27404;52.398;9.646;2022-11-20T13:02:37;100248.72;;;1.00;100.00
8160;BME280;27404;52.398;9.646;2022-11-20T13:05:30;100251.88;;;1.04;100.00
8160;BME280;27404;52.398;9.646;2022-11-20T13:08:00;100247.88;;;1.00;100.00
8160;BME280;27404;52.398;9.646;2022-11-20T13:10:39;100252.34;;;0.93;100.00
8160;BME280;27404;52.398;9.646;2022-11-20T13:13:16;100252.41;;;0.84;100.00
8160;BME280;27404;52.398;9.646;2022-11-20T13:18:16;100249.13;;;0.74;100.00
8160;BME280;27404;52.398;9.646;2022-11-20T13:20:44;100249.59;;;0.54;100.00
8160;BME280;27404;52.398;9.646;2022-11-20T13:23:10;100257.03;;;0.52;100.00
8160;BME280;27404;52.398;9.646;2022-11-20T13:25:38;100253.00;;;0.48;100.00
8160;BME280;27404;52.398;9.646;2022-11-20T13:28:27;100246.91;;;0.54;100.00
8160;BME280;27404;52.398;9.646;2022-11-20T13:30:55;100238.13;;;0.61;100.00
8160;BME280;27404;52.398;9.646;2022-11-20T13:33:25;100233.72;;;0.68;100.00
8160;BME280;27404;52.398;9.646;2022-11-20T13:36:06;100233.44;;;0.78;100.00
8160;BME280;27404;52.398;9.646;2022-11-20T13:38:54;100240.78;;;0.84;100.00
8160;BME280;27404;52.398;9.646;2022-11-20T13:41:34;100234.53;;;0.92;100.00
8160;BME280;27404;52.398;9.646;2022-11-20T13:44:14;100229.78;;;0.94;100.00
8160;BME280;27404;52.398;9.646;2022-11-20T13:46:45;100227.28;;;0.92;100.00
8160;BME280;27404;52.398;9.646;2022-11-20T13:51:51;100231.34;;;0.88;100.00
8160;BME280;27404;52.398;9.646;2022-11-20T13:54:21;100236.72;;;0.88;100.00
8160;BME280;27404;52.398;9.646;2022-11-20T14:02:23;100228.88;;;0.63;100.00
8160;BME280;27404;52.398;9.646;2022-11-20T14:04:52;100228.88;;;0.63;100.00
8160;BME280;27404;52.398;9.646;2022-11-20T14:07:20;100226.25;;;0.55;100.00
8160;BME280;27404;52.398;9.646;2022-11-20T14:09:55;100226.78;;;0.50;100.00
8160;BME280;27404;52.398;9.646;2022-11-20T14:12:32;100227.97;;;0.48;100.00
8160;BME280;27404;52.398;9.646;2022-11-20T14:14:59;100217.03;;;0.49;100.00
8160;BME280;27404;52.398;9.646;2022-11-20T14:17:35;100221.81;;;0.39;100.00
8160;BME280;27404;52.398;9.646;2022-11-20T14:20:04;100212.44;;;0.35;100.00
8160;BME280;27404;52.398;9.646;2022-11-20T14:22:30;100214.09;;;0.36;100.00
8160;BME280;27404;52.398;9.646;2022-11-20T14:27:50;100202.22;;;0.30;100.00
8160;BME280;27404;52.398;9.646;2022-11-20T14:30:19;100206.78;;;0.29;100.00
8160;BME280;27404;52.398;9.646;2022-11-20T14:32:46;100201.03;;;0.33;100.00
8160;BME280;27404;52.398;9.646;2022-11-20T14:35:25;100191.81;;;0.27;100.00
8160;BME280;27404;52.398;9.646;2022-11-20T14:37:52;100198.56;;;0.23;100.00
8160;BME280;27404;52.398;9.646;2022-11-20T14:42:55;100193.38;;;0.21;100.00
8160;BME280;27404;52.398;9.646;2022-11-20T14:45:22;100190.03;;;0.19;100.00
8160;BME280;27404;52.398;9.646;2022-11-20T14:47:51;100183.34;;;0.15;100.00